createdAt,value
2023-03-31T00:00:58.392Z,4.10
2023-03-31T00:02:23.150Z,3.97
2023-03-31T00:03:51.501Z,4.20
2023-03-31T00:05:18.444Z,4.75
2023-03-31T00:06:43.799Z,4.40
2023-03-31T00:08:04.992Z,4.22
2023-03-31T00:09:30.244Z,4.38
2023-03-31T00:11:00.512Z,4.85
2023-03-31T00:12:23.788Z,3.88
2023-03-31T00:13:55.490Z,3.70
2023-03-31T00:15:18.267Z,4.10
2023-03-31T00:16:43.102Z,3.83
2023-03-31T00:18:33.532Z,4.20
2023-03-31T00:20:00.999Z,4.35
2023-03-31T00:21:29.914Z,3.95
2023-03-31T00:22:54.787Z,4.32
2023-03-31T00:24:26.093Z,4.18
2023-03-31T00:25:48.010Z,3.95
2023-03-31T00:27:15.911Z,4.30
2023-03-31T00:28:43.211Z,4.38
2023-03-31T00:30:12.919Z,4.32
2023-03-31T00:31:39.187Z,4.10
2023-03-31T00:33:01.949Z,4.00
2023-03-31T00:34:30.234Z,4.45
2023-03-31T00:36:03.733Z,4.28
2023-03-31T00:37:28.810Z,4.47
2023-03-31T00:38:56.815Z,4.10
2023-03-31T00:40:21.945Z,3.92
2023-03-31T00:41:47.297Z,4.28
2023-03-31T00:43:25.520Z,4.13
2023-03-31T00:45:23.229Z,4.25
2023-03-31T00:46:52.623Z,3.83
2023-03-31T00:48:23.181Z,4.28
2023-03-31T00:49:55.626Z,3.80
2023-03-31T00:51:24.006Z,4.00
2023-03-31T00:52:51.532Z,3.92
2023-03-31T00:54:13.342Z,4.22
2023-03-31T00:55:44.852Z,4.25
2023-03-31T00:57:10.435Z,3.78
2023-03-31T00:58:35.127Z,4.43
2023-03-31T01:00:07.435Z,4.07
2023-03-31T01:03:10.519Z,4.43
2023-03-31T01:04:39.606Z,4.35
2023-03-31T01:06:12.780Z,4.50
2023-03-31T01:07:42.682Z,4.18
2023-03-31T01:09:10.523Z,4.80
2023-03-31T01:10:41.802Z,4.38
2023-03-31T01:12:12.474Z,4.53
2023-03-31T01:13:50.074Z,4.75
2023-03-31T01:15:34.435Z,4.63
2023-03-31T01:17:07.221Z,5.45
2023-03-31T01:20:23.182Z,5.95
2023-03-31T01:22:20.075Z,6.22
2023-03-31T01:24:19.686Z,6.00
2023-03-31T01:26:30.245Z,5.85
2023-03-31T01:28:08.551Z,5.57
2023-03-31T01:29:52.412Z,6.00
2023-03-31T01:34:00.603Z,6.23
2023-03-31T01:35:39.110Z,5.85
2023-03-31T01:37:30.241Z,6.07
2023-03-31T01:39:17.495Z,6.80
2023-03-31T01:40:59.108Z,6.93
2023-03-31T01:42:32.686Z,6.50
2023-03-31T01:44:08.468Z,7.00
2023-03-31T01:45:46.738Z,7.03
2023-03-31T01:47:21.225Z,7.25
2023-03-31T01:49:00.946Z,7.85
2023-03-31T01:50:36.458Z,8.02
2023-03-31T01:52:06.800Z,7.60
2023-03-31T01:53:40.676Z,7.55
2023-03-31T01:55:10.872Z,7.60
2023-03-31T01:56:51.208Z,8.27
2023-03-31T01:58:21.813Z,7.75
2023-03-31T01:59:54.474Z,7.65
2023-03-31T02:01:23.698Z,7.88
2023-03-31T02:02:50.932Z,7.75
2023-03-31T02:04:27.718Z,8.60
2023-03-31T02:05:54.517Z,8.65
2023-03-31T02:07:21.194Z,8.20
2023-03-31T02:08:48.089Z,7.45
2023-03-31T02:10:18.456Z,8.52
2023-03-31T02:11:51.928Z,7.97
2023-03-31T02:13:19.185Z,7.90
2023-03-31T02:14:46.696Z,8.32
2023-03-31T02:16:14.667Z,8.65
2023-03-31T02:17:42.667Z,7.35
2023-03-31T02:19:14.518Z,9.20
2023-03-31T02:20:39.714Z,7.82
2023-03-31T02:22:07.072Z,7.88
2023-03-31T02:23:35.084Z,7.20
2023-03-31T02:25:05.338Z,7.68
2023-03-31T02:26:35.424Z,7.47
2023-03-31T02:28:07.107Z,8.30
2023-03-31T02:29:31.594Z,7.35
2023-03-31T02:31:17.045Z,8.35
2023-03-31T02:32:49.735Z,8.35
2023-03-31T02:34:18.350Z,7.60
2023-03-31T02:35:39.845Z,7.88
2023-03-31T02:37:14.738Z,8.05
2023-03-31T02:38:47.672Z,8.52
2023-03-31T02:40:31.043Z,7.47
2023-03-31T02:42:02.515Z,7.85
2023-03-31T02:43:42.558Z,8.57
2023-03-31T02:45:09.150Z,8.57
2023-03-31T02:46:54.914Z,8.98
2023-03-31T02:48:20.633Z,8.43
2023-03-31T02:50:06.487Z,8.13
2023-03-31T02:52:09.264Z,8.07
2023-03-31T02:53:52.647Z,8.00
2023-03-31T02:55:37.761Z,8.70
2023-03-31T02:57:36.248Z,8.25
2023-03-31T02:59:27.356Z,8.75
2023-03-31T03:01:13.568Z,8.02
2023-03-31T03:02:54.796Z,7.40
2023-03-31T03:05:11.863Z,7.57
2023-03-31T03:06:54.181Z,8.15
2023-03-31T03:08:30.970Z,8.10
2023-03-31T03:10:02.601Z,8.10
2023-03-31T03:11:48.510Z,9.05
2023-03-31T03:13:28.115Z,8.80
2023-03-31T03:15:04.098Z,8.17
2023-03-31T03:16:48.384Z,8.23
2023-03-31T03:18:10.825Z,7.82
2023-03-31T03:19:34.911Z,7.47
2023-03-31T03:20:59.304Z,8.77
2023-03-31T03:22:23.447Z,8.25
2023-03-31T03:23:52.113Z,7.82
2023-03-31T03:25:18.517Z,8.18
2023-03-31T03:26:40.431Z,7.88
2023-03-31T03:28:04.364Z,8.40
2023-03-31T03:29:31.110Z,8.65
2023-03-31T03:30:58.457Z,8.20
2023-03-31T03:32:23.446Z,8.65
2023-03-31T03:33:45.772Z,8.52
2023-03-31T03:35:11.481Z,8.35
2023-03-31T03:36:40.688Z,8.75
2023-03-31T03:38:09.670Z,8.65
2023-03-31T03:39:39.653Z,8.35
2023-03-31T03:41:10.031Z,8.60
2023-03-31T03:42:38.414Z,7.95
2023-03-31T03:44:05.377Z,8.82
2023-03-31T03:45:31.638Z,8.02
2023-03-31T03:47:01.789Z,7.85
2023-03-31T03:48:27.304Z,7.18
2023-03-31T03:49:50.736Z,8.18
2023-03-31T03:51:13.302Z,7.35
2023-03-31T03:52:50.274Z,7.93
2023-03-31T03:54:18.728Z,7.68
2023-03-31T03:55:49.183Z,7.18
2023-03-31T03:57:11.536Z,7.53
2023-03-31T03:58:37.240Z,7.90
2023-03-31T04:00:11.333Z,7.07
2023-03-31T04:01:33.243Z,7.55
2023-03-31T04:02:57.590Z,8.15
2023-03-31T04:04:20.875Z,7.03
2023-03-31T04:05:50.125Z,7.85
2023-03-31T04:07:17.170Z,8.20
2023-03-31T04:08:45.641Z,8.93
2023-03-31T04:10:17.370Z,7.88
2023-03-31T04:11:43.908Z,7.15
2023-03-31T04:13:16.293Z,8.00
2023-03-31T04:14:46.216Z,7.25
2023-03-31T04:16:14.526Z,8.73
2023-03-31T04:17:42.677Z,8.15
2023-03-31T04:19:13.239Z,7.50
2023-03-31T04:20:45.668Z,7.55
2023-03-31T04:22:07.023Z,7.60
2023-03-31T04:23:29.712Z,7.80
2023-03-31T04:24:52.968Z,8.45
2023-03-31T04:26:18.302Z,7.78
2023-03-31T04:27:51.111Z,8.02
2023-03-31T04:29:21.957Z,8.20
2023-03-31T04:30:50.105Z,8.18
2023-03-31T04:32:27.640Z,7.95
2023-03-31T04:33:58.073Z,7.53
2023-03-31T04:35:25.331Z,7.95
2023-03-31T04:36:51.126Z,8.10
2023-03-31T04:38:18.791Z,8.82
2023-03-31T04:39:50.165Z,9.45
2023-03-31T04:41:13.498Z,9.07
2023-03-31T04:42:38.852Z,8.98
2023-03-31T04:44:06.803Z,10.05
2023-03-31T04:45:36.384Z,9.40
2023-03-31T04:47:07.163Z,9.07
2023-03-31T04:48:32.107Z,8.43
2023-03-31T04:49:55.679Z,8.48
2023-03-31T04:52:00.742Z,8.85
2023-03-31T04:53:32.100Z,8.75
2023-03-31T04:55:01.026Z,9.40
2023-03-31T04:56:38.725Z,8.82
2023-03-31T04:58:01.834Z,9.75
2023-03-31T04:59:24.585Z,9.00
2023-03-31T05:00:48.831Z,9.88
2023-03-31T05:02:16.013Z,9.73
2023-03-31T05:03:46.671Z,9.45
2023-03-31T05:05:12.683Z,9.65
2023-03-31T05:06:42.762Z,9.57
2023-03-31T05:08:21.355Z,10.15
2023-03-31T05:09:47.553Z,9.82
2023-03-31T05:11:25.438Z,10.25
2023-03-31T05:13:12.391Z,10.10
2023-03-31T05:15:00.565Z,10.48
2023-03-31T05:16:31.548Z,10.65
2023-03-31T05:18:08.677Z,10.73
2023-03-31T05:19:44.295Z,9.90
2023-03-31T05:21:38.743Z,9.95
2023-03-31T05:23:01.378Z,9.70
2023-03-31T05:24:28.541Z,8.77
2023-03-31T05:25:49.888Z,10.05
2023-03-31T05:27:15.280Z,9.90
2023-03-31T05:28:37.214Z,10.23
2023-03-31T05:30:29.920Z,9.93
2023-03-31T05:31:54.073Z,9.82
2023-03-31T05:33:16.749Z,9.63
2023-03-31T05:34:39.002Z,9.45
2023-03-31T05:36:01.896Z,9.10
2023-03-31T05:37:24.428Z,9.82
2023-03-31T05:38:47.829Z,9.63
2023-03-31T05:40:11.726Z,9.65
2023-03-31T05:41:33.887Z,8.77
2023-03-31T05:42:56.052Z,9.68
2023-03-31T05:44:20.851Z,9.13
2023-03-31T05:45:43.094Z,9.20
2023-03-31T05:47:07.064Z,9.27
2023-03-31T05:48:29.480Z,10.13
2023-03-31T05:49:52.201Z,10.45
2023-03-31T05:51:17.649Z,9.27
2023-03-31T05:52:39.794Z,8.57
2023-03-31T05:54:02.113Z,9.52
2023-03-31T05:55:27.632Z,9.68
2023-03-31T05:56:50.394Z,8.95
2023-03-31T05:58:12.599Z,9.68
2023-03-31T06:01:07.571Z,8.90
2023-03-31T06:02:30.142Z,9.00
2023-03-31T06:04:18.893Z,8.75
2023-03-31T06:05:55.317Z,9.13
2023-03-31T06:07:47.684Z,8.35
2023-03-31T06:09:52.898Z,8.48
2023-03-31T06:11:40.893Z,9.60
2023-03-31T06:13:05.111Z,8.52
2023-03-31T06:14:49.873Z,9.13
2023-03-31T06:18:43.510Z,8.48
2023-03-31T06:20:16.353Z,8.23
2023-03-31T06:21:49.255Z,8.32
2023-03-31T06:23:13.888Z,8.40
2023-03-31T06:24:39.212Z,8.20
2023-03-31T06:26:06.515Z,8.23
2023-03-31T06:27:32.518Z,9.25
2023-03-31T06:28:54.918Z,7.72
2023-03-31T06:30:32.704Z,8.10
2023-03-31T06:31:55.201Z,8.93
2023-03-31T06:33:17.886Z,9.05
2023-03-31T06:34:40.579Z,9.70
2023-03-31T06:36:05.715Z,8.20
2023-03-31T06:37:28.247Z,8.13
2023-03-31T06:38:52.158Z,8.13
2023-03-31T06:40:14.824Z,7.97
2023-03-31T06:41:38.900Z,8.00
2023-03-31T06:43:02.210Z,8.15
2023-03-31T06:44:24.770Z,7.78
2023-03-31T06:45:52.420Z,7.93
2023-03-31T06:47:15.772Z,7.15
2023-03-31T06:48:37.340Z,8.27
2023-03-31T06:49:59.744Z,8.35
2023-03-31T06:51:22.005Z,7.35
2023-03-31T06:52:44.357Z,7.70
2023-03-31T06:54:06.938Z,7.65
2023-03-31T06:55:29.029Z,7.72
2023-03-31T06:56:51.123Z,8.07
2023-03-31T06:58:15.231Z,7.82
2023-03-31T06:59:41.196Z,7.82
2023-03-31T07:01:04.935Z,7.72
2023-03-31T07:02:30.935Z,6.93
2023-03-31T07:03:53.190Z,6.60
2023-03-31T07:05:16.809Z,7.18
2023-03-31T07:06:41.450Z,7.25
2023-03-31T07:08:03.348Z,7.45
2023-03-31T07:09:25.295Z,7.00
2023-03-31T07:10:49.015Z,7.10
2023-03-31T07:12:11.616Z,7.50
2023-03-31T07:13:38.323Z,7.53
2023-03-31T07:15:00.562Z,7.40
2023-03-31T07:16:23.833Z,7.78
2023-03-31T07:17:46.047Z,7.18
2023-03-31T07:19:13.345Z,7.68
2023-03-31T07:20:38.295Z,7.28
2023-03-31T07:22:00.773Z,6.53
2023-03-31T07:23:23.004Z,7.20
2023-03-31T07:24:45.135Z,7.20
2023-03-31T07:26:08.009Z,6.93
2023-03-31T07:27:30.614Z,7.53
2023-03-31T07:28:56.687Z,7.45
2023-03-31T07:30:20.856Z,7.90
2023-03-31T07:31:43.031Z,7.20
2023-03-31T07:33:05.389Z,7.30
2023-03-31T07:34:28.028Z,7.65
2023-03-31T07:36:00.301Z,8.02
2023-03-31T07:37:36.834Z,7.45
2023-03-31T07:38:59.501Z,7.90
2023-03-31T07:40:25.311Z,7.95
2023-03-31T07:41:47.572Z,8.27
2023-03-31T07:43:10.024Z,8.15
2023-03-31T07:44:37.133Z,9.00
2023-03-31T07:45:59.400Z,8.68
2023-03-31T07:47:21.647Z,8.75
2023-03-31T07:48:44.091Z,9.30
2023-03-31T07:50:07.696Z,9.02
2023-03-31T07:51:30.108Z,9.77
2023-03-31T07:52:52.973Z,8.50
2023-03-31T07:54:14.985Z,11.27
2023-03-31T07:57:20.426Z,12.65
2023-03-31T07:58:42.841Z,11.00
2023-03-31T08:00:08.679Z,9.23
2023-03-31T08:01:37.012Z,8.10
2023-03-31T08:02:59.275Z,9.77
2023-03-31T08:04:21.642Z,10.02
2023-03-31T08:05:43.873Z,9.25
2023-03-31T08:07:06.566Z,9.80
2023-03-31T08:08:28.754Z,8.80
2023-03-31T08:09:53.893Z,9.43
2023-03-31T08:11:15.891Z,8.68
2023-03-31T08:12:37.978Z,9.00
2023-03-31T08:14:00.287Z,8.25
2023-03-31T08:15:25.865Z,7.53
2023-03-31T08:16:48.089Z,7.20
2023-03-31T08:19:31.636Z,7.50
2023-03-31T08:20:53.788Z,7.72
2023-03-31T08:23:40.059Z,7.38
2023-03-31T08:25:02.395Z,7.40
2023-03-31T08:26:25.717Z,6.70
2023-03-31T08:27:51.004Z,7.32
2023-03-31T08:29:13.303Z,7.40
2023-03-31T08:30:41.487Z,8.10
2023-03-31T08:32:03.838Z,8.45
2023-03-31T08:33:26.204Z,8.85
2023-03-31T08:34:48.343Z,6.97
2023-03-31T08:36:11.858Z,7.53
2023-03-31T08:37:35.741Z,7.78
2023-03-31T08:38:58.243Z,7.70
2023-03-31T08:40:23.958Z,7.13
2023-03-31T08:41:56.333Z,7.10
2023-03-31T08:43:24.595Z,7.47
2023-03-31T08:44:51.497Z,6.63
2023-03-31T08:46:17.206Z,6.55
2023-03-31T08:47:41.798Z,6.93
2023-03-31T08:49:06.102Z,7.03
2023-03-31T08:50:31.947Z,6.45
2023-03-31T08:51:57.818Z,5.93
2023-03-31T08:53:25.266Z,5.43
2023-03-31T08:54:50.872Z,5.78
2023-03-31T08:56:18.490Z,5.68
2023-03-31T08:57:56.220Z,5.32
2023-03-31T08:59:26.347Z,5.38
2023-03-31T09:00:58.686Z,5.72
2023-03-31T09:02:33.808Z,5.50
2023-03-31T09:04:27.346Z,5.93
2023-03-31T09:06:12.994Z,5.18
2023-03-31T09:07:42.432Z,5.45
2023-03-31T09:09:08.670Z,5.07
2023-03-31T09:10:39.836Z,5.18
2023-03-31T09:12:08.078Z,4.72
2023-03-31T09:13:58.485Z,5.90
2023-03-31T09:15:27.626Z,5.47
2023-03-31T09:17:01.068Z,4.57
2023-03-31T09:18:31.949Z,4.95
2023-03-31T09:19:59.045Z,4.68
2023-03-31T09:21:27.693Z,5.13
2023-03-31T09:22:54.588Z,4.93
2023-03-31T09:24:21.838Z,4.93
2023-03-31T09:25:45.840Z,4.72
2023-03-31T09:27:12.797Z,5.00
2023-03-31T09:28:39.821Z,4.90
2023-03-31T09:30:07.137Z,4.47
2023-03-31T09:31:29.987Z,4.53
2023-03-31T09:32:56.833Z,4.00
2023-03-31T09:34:27.100Z,4.25
2023-03-31T09:35:51.434Z,4.25
2023-03-31T09:37:17.898Z,3.83
2023-03-31T09:38:40.262Z,4.40
2023-03-31T09:40:08.119Z,4.43
2023-03-31T09:41:32.412Z,4.22
2023-03-31T09:42:59.443Z,4.60
2023-03-31T09:44:27.791Z,4.50
2023-03-31T09:46:07.673Z,4.90
2023-03-31T09:47:39.293Z,5.68
2023-03-31T09:49:06.879Z,4.47
2023-03-31T09:50:33.161Z,4.25
2023-03-31T09:52:04.890Z,4.18
2023-03-31T09:53:36.263Z,5.10
2023-03-31T09:55:25.198Z,4.25
2023-03-31T09:56:54.919Z,4.28
2023-03-31T09:58:23.263Z,4.65
2023-03-31T09:59:46.609Z,4.95
2023-03-31T10:01:16.388Z,4.07
2023-03-31T10:03:48.916Z,4.18
2023-03-31T10:05:24.130Z,4.40
2023-03-31T10:06:52.671Z,4.82
2023-03-31T10:08:33.625Z,4.03
2023-03-31T10:10:01.189Z,4.55
2023-03-31T10:11:30.702Z,4.25
2023-03-31T10:13:04.097Z,5.22
2023-03-31T10:14:37.592Z,5.05
2023-03-31T10:16:16.315Z,4.50
2023-03-31T10:17:54.774Z,5.35
2023-03-31T10:19:36.839Z,4.72
2023-03-31T10:21:13.985Z,4.60
2023-03-31T10:23:15.559Z,5.03
2023-03-31T10:31:06.807Z,3.83
2023-03-31T10:36:31.728Z,4.03
2023-03-31T10:38:52.204Z,3.88
2023-03-31T10:40:22.680Z,3.88
2023-03-31T10:41:52.468Z,3.95
2023-03-31T10:43:22.482Z,3.80
2023-03-31T10:44:47.285Z,3.72
2023-03-31T10:46:17.279Z,3.65
2023-03-31T10:47:42.182Z,3.83
2023-03-31T10:49:42.056Z,4.03
2023-03-31T10:51:14.611Z,4.10
2023-03-31T10:52:46.988Z,3.80
2023-03-31T10:54:18.646Z,4.07
2023-03-31T10:55:54.679Z,3.63
2023-03-31T10:57:19.197Z,3.90
2023-03-31T10:59:05.412Z,3.63
2023-03-31T11:00:36.604Z,4.32
2023-03-31T11:02:24.520Z,3.78
2023-03-31T11:04:34.994Z,4.18
2023-03-31T11:06:30.743Z,4.47
2023-03-31T11:08:28.645Z,3.42
2023-03-31T11:10:36.656Z,3.35
2023-03-31T11:12:09.293Z,3.70
2023-03-31T11:15:48.592Z,2.95
2023-03-31T11:17:27.921Z,4.07
2023-03-31T11:19:13.068Z,8.55
2023-03-31T11:20:44.671Z,10.15
2023-03-31T11:22:13.979Z,3.60
2023-03-31T11:23:43.460Z,3.47
2023-03-31T11:25:21.560Z,3.33
2023-03-31T11:26:56.214Z,3.15
2023-03-31T11:28:39.307Z,2.80
2023-03-31T11:30:07.848Z,3.25
2023-03-31T11:31:47.938Z,3.00
2023-03-31T11:33:49.944Z,3.60
2023-03-31T11:35:35.751Z,2.90
2023-03-31T11:37:27.629Z,3.90
2023-03-31T11:39:17.531Z,3.42
2023-03-31T11:40:58.965Z,3.60
2023-03-31T11:42:30.696Z,3.17
2023-03-31T11:44:10.111Z,3.63
2023-03-31T11:45:40.381Z,3.55
2023-03-31T11:47:07.893Z,3.40
2023-03-31T11:48:56.844Z,3.78
2023-03-31T11:50:24.713Z,2.85
2023-03-31T11:51:54.007Z,3.65
2023-03-31T11:53:23.048Z,3.92
2023-03-31T11:54:53.514Z,3.25
2023-03-31T11:56:20.873Z,3.25
2023-03-31T11:57:56.351Z,3.88
2023-03-31T11:59:22.998Z,3.45
2023-03-31T12:01:06.445Z,3.30
2023-03-31T12:02:38.130Z,3.47
2023-03-31T12:05:32.300Z,3.20
2023-03-31T12:07:02.402Z,3.22
2023-03-31T12:09:29.381Z,3.20
2023-03-31T12:10:57.987Z,3.58
2023-03-31T12:12:31.624Z,3.90
2023-03-31T12:13:58.403Z,3.35
2023-03-31T12:15:27.102Z,2.70
2023-03-31T12:16:59.778Z,2.83
2023-03-31T12:18:28.245Z,3.50
2023-03-31T12:19:53.792Z,3.05
2023-03-31T12:21:27.886Z,3.25
2023-03-31T12:22:53.192Z,3.22
2023-03-31T12:24:19.706Z,4.10
2023-03-31T12:25:55.500Z,3.30
2023-03-31T12:27:29.630Z,3.08
2023-03-31T12:29:06.227Z,3.20
2023-03-31T12:30:45.230Z,3.70
2023-03-31T12:32:20.249Z,3.47
2023-03-31T12:33:55.313Z,2.72
2023-03-31T12:35:27.444Z,2.97
2023-03-31T12:37:13.165Z,2.67
2023-03-31T12:38:52.144Z,2.97
2023-03-31T12:40:38.070Z,2.47
2023-03-31T12:42:40.932Z,2.45
2023-03-31T12:44:37.353Z,2.85
2023-03-31T12:46:18.005Z,2.80
2023-03-31T12:48:10.509Z,2.75
2023-03-31T12:49:47.478Z,3.08
2023-03-31T12:51:54.472Z,3.13
2023-03-31T12:55:37.612Z,3.85
2023-03-31T12:57:23.344Z,4.20
2023-03-31T12:58:48.502Z,3.40
2023-03-31T13:00:27.045Z,3.72
2023-03-31T13:02:21.704Z,3.35
2023-03-31T13:03:53.123Z,3.75
2023-03-31T13:05:48.970Z,3.33
2023-03-31T13:07:34.894Z,3.47
2023-03-31T13:09:02.670Z,3.60
2023-03-31T13:10:30.886Z,3.25
2023-03-31T13:11:53.260Z,3.25
2023-03-31T13:13:17.791Z,3.40
2023-03-31T13:14:43.708Z,7.15
2023-03-31T13:16:05.926Z,4.10
2023-03-31T13:17:38.323Z,3.97
2023-03-31T13:19:11.937Z,4.25
2023-03-31T13:20:37.910Z,3.53
2023-03-31T13:22:01.851Z,3.30
2023-03-31T13:23:26.027Z,3.95
2023-03-31T13:24:47.252Z,4.05
2023-03-31T13:26:39.573Z,3.63
2023-03-31T13:28:13.964Z,3.67
2023-03-31T13:29:43.194Z,3.88
2023-03-31T13:31:06.454Z,3.80
2023-03-31T13:32:29.358Z,4.70
2023-03-31T13:33:58.587Z,3.88
2023-03-31T13:35:29.980Z,6.60
2023-03-31T13:37:08.946Z,4.35
2023-03-31T13:38:46.403Z,4.80
2023-03-31T13:40:22.699Z,4.63
2023-03-31T13:41:56.483Z,4.53
2023-03-31T13:43:46.170Z,3.83
2023-03-31T13:45:21.148Z,3.83
2023-03-31T13:47:17.960Z,3.85
2023-03-31T13:49:07.686Z,4.70
2023-03-31T13:52:12.692Z,4.40
2023-03-31T13:53:51.460Z,4.68
2023-03-31T13:55:57.930Z,4.78
2023-03-31T13:57:56.461Z,4.90
2023-03-31T13:59:49.778Z,4.95
2023-03-31T14:01:47.352Z,5.72
2023-03-31T14:03:26.770Z,4.75
2023-03-31T14:05:15.718Z,5.32
2023-03-31T14:06:43.186Z,5.88
2023-03-31T14:08:13.078Z,6.63
2023-03-31T14:09:41.394Z,6.32
2023-03-31T14:11:18.929Z,6.47
2023-03-31T14:12:41.486Z,6.43
2023-03-31T14:14:06.378Z,7.03
2023-03-31T14:15:32.954Z,7.40
2023-03-31T14:16:58.606Z,7.38
2023-03-31T14:18:33.337Z,7.47
2023-03-31T14:20:17.371Z,7.20
2023-03-31T14:21:49.620Z,7.40
2023-03-31T14:24:53.952Z,7.40
2023-03-31T14:26:32.725Z,8.50
2023-03-31T14:28:06.706Z,9.07
2023-03-31T14:29:38.651Z,7.47
2023-03-31T14:31:13.761Z,6.53
2023-03-31T14:32:46.065Z,6.95
2023-03-31T14:34:31.274Z,6.63
2023-03-31T14:36:01.968Z,6.55
2023-03-31T14:37:31.078Z,6.53
2023-03-31T14:38:53.144Z,6.78
2023-03-31T14:40:18.528Z,6.60
2023-03-31T14:41:44.716Z,6.70
2023-03-31T14:43:35.310Z,6.10
2023-03-31T14:44:59.274Z,6.65
2023-03-31T14:46:22.622Z,6.55
2023-03-31T14:47:54.382Z,6.03
2023-03-31T14:49:23.747Z,6.35
2023-03-31T14:50:48.084Z,5.65
2023-03-31T14:52:19.723Z,6.28
2023-03-31T14:53:43.680Z,5.60
2023-03-31T14:55:06.997Z,6.40
2023-03-31T14:56:35.032Z,6.78
2023-03-31T14:58:00.714Z,6.20
2023-03-31T14:59:27.783Z,6.22
2023-03-31T15:00:50.302Z,6.43
2023-03-31T15:02:18.352Z,6.70
2023-03-31T15:04:39.535Z,7.57
2023-03-31T15:06:13.251Z,6.78
2023-03-31T15:07:38.660Z,7.65
2023-03-31T15:09:05.548Z,7.57
2023-03-31T15:10:34.783Z,6.38
2023-03-31T15:12:12.888Z,6.72
2023-03-31T15:13:37.104Z,6.45
2023-03-31T15:15:06.429Z,6.95
2023-03-31T15:16:43.437Z,6.45
2023-03-31T15:18:08.771Z,7.65
2023-03-31T15:19:37.805Z,6.95
2023-03-31T15:21:00.319Z,6.53
2023-03-31T15:22:26.278Z,6.68
2023-03-31T15:23:48.427Z,5.80
2023-03-31T15:25:16.938Z,6.00
2023-03-31T15:26:44.130Z,5.30
2023-03-31T15:28:08.622Z,5.55
2023-03-31T15:29:39.364Z,5.45
2023-03-31T15:32:47.330Z,4.30
2023-03-31T15:34:28.029Z,4.93
2023-03-31T15:35:50.831Z,4.47
2023-03-31T15:37:13.105Z,4.60
2023-03-31T15:38:36.153Z,3.90
2023-03-31T15:40:00.761Z,4.03
2023-03-31T15:43:01.683Z,3.83
2023-03-31T15:44:39.123Z,3.50
2023-03-31T15:46:03.443Z,3.92
2023-03-31T15:47:30.767Z,3.47
2023-03-31T15:49:02.457Z,3.58
2023-03-31T15:50:31.217Z,4.03
2023-03-31T15:51:54.399Z,3.80
2023-03-31T15:53:39.048Z,3.55
2023-03-31T15:55:38.370Z,3.38
2023-03-31T15:57:03.970Z,3.25
2023-03-31T15:58:49.500Z,3.67
2023-03-31T16:00:47.556Z,3.28
2023-03-31T16:02:13.366Z,3.22
2023-03-31T16:03:38.854Z,3.72
2023-03-31T16:05:03.014Z,3.35
2023-03-31T16:06:36.518Z,3.65
2023-03-31T16:08:00.033Z,3.95
2023-03-31T16:09:28.055Z,3.25
2023-03-31T16:11:00.324Z,3.65
2023-03-31T16:13:51.611Z,3.78
2023-03-31T16:15:17.614Z,3.85
2023-03-31T16:16:47.134Z,3.53
2023-03-31T16:18:20.402Z,4.10
2023-03-31T16:19:48.917Z,4.28
2023-03-31T16:21:13.122Z,4.53
2023-03-31T16:22:40.832Z,3.83
2023-03-31T16:24:05.653Z,4.00
2023-03-31T16:25:30.228Z,4.22
2023-03-31T16:26:52.649Z,4.00
2023-03-31T16:28:19.826Z,4.43
2023-03-31T16:29:44.274Z,4.32
2023-03-31T16:31:07.037Z,3.85
2023-03-31T16:32:30.871Z,4.60
2023-03-31T16:33:57.855Z,3.38
2023-03-31T16:35:20.032Z,3.85
2023-03-31T16:36:42.997Z,4.43
2023-03-31T16:38:05.195Z,4.13
2023-03-31T16:39:28.926Z,4.20
2023-03-31T16:40:54.751Z,4.13
2023-03-31T16:42:26.099Z,4.05
2023-03-31T16:43:49.666Z,4.10
2023-03-31T16:45:14.952Z,3.78
2023-03-31T16:46:37.774Z,4.03
2023-03-31T16:48:12.869Z,4.10
2023-03-31T16:49:38.248Z,3.95
2023-03-31T16:51:04.156Z,4.45
2023-03-31T16:52:26.752Z,4.07
2023-03-31T16:53:49.526Z,4.30
2023-03-31T16:55:10.577Z,4.60
2023-03-31T16:56:32.971Z,5.55
2023-03-31T16:57:55.727Z,3.95
2023-03-31T16:59:17.814Z,4.57
2023-03-31T17:02:02.413Z,4.97
2023-03-31T17:04:56.722Z,4.97
2023-03-31T17:06:22.285Z,5.45
2023-03-31T17:07:44.942Z,4.55
2023-03-31T17:09:08.974Z,5.50
2023-03-31T17:10:33.757Z,6.35
2023-03-31T17:11:57.357Z,5.45
2023-03-31T17:13:20.120Z,5.50
2023-03-31T17:14:42.328Z,6.15
2023-03-31T17:17:38.274Z,6.05
2023-03-31T17:19:49.286Z,6.70
2023-03-31T17:21:40.309Z,6.22
2023-03-31T17:24:00.219Z,6.50
2023-03-31T17:25:33.293Z,5.95
2023-03-31T17:29:48.132Z,6.68
2023-03-31T17:31:15.104Z,6.28
2023-03-31T17:32:57.661Z,6.75
2023-03-31T17:38:46.026Z,7.68
2023-03-31T17:40:37.573Z,6.85
2023-03-31T17:43:13.612Z,7.78
2023-03-31T17:44:47.055Z,6.45
2023-03-31T17:46:38.061Z,7.43
2023-03-31T17:48:07.977Z,7.30
2023-03-31T17:49:55.024Z,7.30
2023-03-31T17:52:00.466Z,6.78
2023-03-31T17:53:40.533Z,7.20
2023-03-31T17:57:32.662Z,7.72
2023-03-31T17:59:31.514Z,7.82
2023-03-31T18:06:13.925Z,5.55
2023-03-31T18:10:02.743Z,6.65
2023-03-31T18:12:18.727Z,6.50
2023-03-31T18:14:29.594Z,5.95
2023-03-31T18:17:11.465Z,6.10
2023-03-31T18:24:44.960Z,6.60
2023-03-31T18:26:07.855Z,7.90
2023-03-31T18:27:30.129Z,7.25
2023-03-31T18:28:51.463Z,7.15
2023-03-31T18:30:17.084Z,7.60
2023-03-31T18:31:39.335Z,7.03
2023-03-31T18:33:01.949Z,7.38
2023-03-31T18:34:27.465Z,7.60
2023-03-31T18:35:50.027Z,8.18
2023-03-31T18:37:12.842Z,8.77
2023-03-31T18:38:37.188Z,7.57
2023-03-31T18:40:01.857Z,8.18
2023-03-31T18:41:27.153Z,7.25
2023-03-31T18:42:49.669Z,7.40
2023-03-31T18:44:17.233Z,6.43
2023-03-31T18:45:42.406Z,6.97
2023-03-31T18:47:04.723Z,7.40
2023-03-31T18:48:30.111Z,8.05
2023-03-31T18:50:09.596Z,7.47
2023-03-31T18:51:41.369Z,6.82
2023-03-31T18:53:15.549Z,6.63
2023-03-31T18:54:44.222Z,6.43
2023-03-31T18:56:10.909Z,6.30
2023-03-31T18:57:39.046Z,6.68
2023-03-31T18:59:04.258Z,6.65
2023-03-31T19:00:32.914Z,6.03
2023-03-31T19:02:01.899Z,6.97
2023-03-31T19:03:23.890Z,6.43
2023-03-31T19:04:47.232Z,6.57
2023-03-31T19:06:12.522Z,6.68
2023-03-31T19:07:36.026Z,6.35
2023-03-31T19:08:58.740Z,7.80
2023-03-31T19:10:21.575Z,6.57
2023-03-31T19:11:55.211Z,5.80
2023-03-31T19:13:17.982Z,6.35
2023-03-31T19:14:50.381Z,6.50
2023-03-31T19:16:13.630Z,6.82
2023-03-31T19:17:39.355Z,6.95
2023-03-31T19:19:03.634Z,6.70
2023-03-31T19:20:28.554Z,6.45
2023-03-31T19:21:55.015Z,7.07
2023-03-31T19:23:22.641Z,6.72
2023-03-31T19:24:57.049Z,7.05
2023-03-31T19:26:19.878Z,7.63
2023-03-31T19:27:46.966Z,7.68
2023-03-31T19:29:12.011Z,7.40
2023-03-31T19:30:34.608Z,7.43
2023-03-31T19:31:56.892Z,8.32
2023-03-31T19:33:19.883Z,7.75
2023-03-31T19:34:42.792Z,8.25
2023-03-31T19:36:06.103Z,8.27
2023-03-31T19:37:37.997Z,8.15
2023-03-31T19:39:01.508Z,7.25
2023-03-31T19:40:45.115Z,7.78
2023-03-31T19:42:19.314Z,7.05
2023-03-31T19:43:48.245Z,8.52
2023-03-31T19:45:13.923Z,7.85
2023-03-31T19:46:39.118Z,8.80
2023-03-31T19:48:02.022Z,8.38
2023-03-31T19:49:38.918Z,8.82
2023-03-31T19:51:06.070Z,8.20
2023-03-31T19:52:28.499Z,7.90
2023-03-31T19:54:03.046Z,8.55
2023-03-31T19:55:58.482Z,8.00
2023-03-31T19:57:31.359Z,8.27
2023-03-31T19:58:54.978Z,8.85
2023-03-31T20:00:20.130Z,8.25
2023-03-31T20:01:45.912Z,8.75
2023-03-31T20:03:12.106Z,8.10
2023-03-31T20:04:37.252Z,8.07
2023-03-31T20:06:13.998Z,7.22
2023-03-31T20:07:45.300Z,7.68
2023-03-31T20:09:18.431Z,7.88
2023-03-31T20:10:52.975Z,8.27
2023-03-31T20:12:16.040Z,8.00
2023-03-31T20:13:44.917Z,8.38
2023-03-31T20:15:29.705Z,8.20
2023-03-31T20:16:53.007Z,8.25
2023-03-31T20:18:19.961Z,8.10
2023-03-31T20:19:58.174Z,8.50
2023-03-31T20:21:26.206Z,8.65
2023-03-31T20:22:50.587Z,8.77
2023-03-31T20:24:17.303Z,9.05
2023-03-31T20:25:40.916Z,9.30
2023-03-31T20:27:07.320Z,9.88
2023-03-31T20:28:34.874Z,9.00
2023-03-31T20:30:29.780Z,9.93
2023-03-31T20:32:26.862Z,9.38
2023-03-31T20:34:43.008Z,8.77
2023-03-31T20:36:17.365Z,8.65
2023-03-31T20:37:39.900Z,10.00
2023-03-31T20:39:06.094Z,9.20
2023-03-31T20:40:31.918Z,9.23
2023-03-31T20:41:55.712Z,9.90
2023-03-31T20:43:17.262Z,10.65
2023-03-31T20:44:40.895Z,10.25
2023-03-31T20:46:05.309Z,11.02
2023-03-31T20:47:32.489Z,11.63
2023-03-31T20:49:01.207Z,10.57
2023-03-31T20:50:24.501Z,11.63
2023-03-31T20:51:49.563Z,9.95
2023-03-31T20:53:11.236Z,10.30
2023-03-31T20:54:36.214Z,10.10
2023-03-31T20:56:00.539Z,8.32
2023-03-31T20:57:24.705Z,10.52
2023-03-31T20:58:47.689Z,8.55
2023-03-31T21:00:13.868Z,8.45
2023-03-31T21:01:37.546Z,7.40
2023-03-31T21:03:05.372Z,6.07
2023-03-31T21:04:39.033Z,5.53
2023-03-31T21:06:02.878Z,5.28
2023-03-31T21:07:24.966Z,4.40
2023-03-31T21:08:54.158Z,4.65
2023-03-31T21:10:19.119Z,4.40
2023-03-31T21:11:41.833Z,3.80
2023-03-31T21:13:03.894Z,3.58
2023-03-31T21:14:31.414Z,3.25
2023-03-31T21:16:06.386Z,3.03
2023-03-31T21:18:07.221Z,2.90
2023-03-31T21:19:46.627Z,2.10